sensor_id;sensor_type;location;lat;lon;timestamp;temperature;humidity
39925;DHT22;25592;49.986;11.618;2023-02-13T00:00:38;4.40;99.90
39925;DHT22;25592;49.986;11.618;2023-02-13T00:03:23;4.40;99.90
39925;DHT22;25592;49.986;11.618;2023-02-13T00:06:10;4.30;99.90
39925;DHT22;25592;49.986;11.618;2023-02-13T00:08:55;4.30;99.90
39925;DHT22;25592;49.986;11.618;2023-02-13T00:11:41;4.30;99.90
39925;DHT22;25592;49.986;11.618;2023-02-13T00:14:26;4.30;99.90
39925;DHT22;25592;49.986;11.618;2023-02-13T00:17:11;4.30;99.90
39925;DHT22;25592;49.986;11.618;2023-02-13T00:19:57;4.40;99.90
39925;DHT22;25592;49.986;11.618;2023-02-13T00:22:42;4.30;99.90
39925;DHT22;25592;49.986;11.618;2023-02-13T00:25:28;4.40;99.90
39925;DHT22;25592;49.986;11.618;2023-02-13T00:28:13;4.30;99.90
39925;DHT22;25592;49.986;11.618;2023-02-13T00:31:07;4.30;99.90
39925;DHT22;25592;49.986;11.618;2023-02-13T00:33:53;4.30;99.90
39925;DHT22;25592;49.986;11.618;2023-02-13T00:36:38;4.30;99.90
39925;DHT22;25592;49.986;11.618;2023-02-13T00:39:23;4.30;99.90
39925;DHT22;25592;49.986;11.618;2023-02-13T00:42:09;4.30;99.90
39925;DHT22;25592;49.986;11.618;2023-02-13T00:44:54;4.20;99.90
39925;DHT22;25592;49.986;11.618;2023-02-13T00:47:39;4.20;99.90
39925;DHT22;25592;49.986;11.618;2023-02-13T00:50:25;4.20;99.90
39925;DHT22;25592;49.986;11.618;2023-02-13T00:53:10;4.20;99.90
39925;DHT22;25592;49.986;11.618;2023-02-13T00:55:56;4.20;99.90
39925;DHT22;25592;49.986;11.618;2023-02-13T00:58:41;4.20;99.90
39925;DHT22;25592;49.986;11.618;2023-02-13T01:01:26;4.10;99.90
39925;DHT22;25592;49.986;11.618;2023-02-13T01:04:12;4.10;99.90
39925;DHT22;25592;49.986;11.618;2023-02-13T01:06:57;4.20;99.90
39925;DHT22;25592;49.986;11.618;2023-02-13T01:09:43;4.20;99.90
39925;DHT22;25592;49.986;11.618;2023-02-13T01:12:28;4.10;99.90
39925;DHT22;25592;49.986;11.618;2023-02-13T01:15:13;4.10;99.90
39925;DHT22;25592;49.986;11.618;2023-02-13T01:17:59;4.10;99.90
39925;DHT22;25592;49.986;11.618;2023-02-13T01:20:55;4.00;99.90
39925;DHT22;25592;49.986;11.618;2023-02-13T01:23:41;4.10;99.90
39925;DHT22;25592;49.986;11.618;2023-02-13T01:26:27;4.00;99.90
39925;DHT22;25592;49.986;11.618;2023-02-13T01:29:13;4.00;99.90
39925;DHT22;25592;49.986;11.618;2023-02-13T01:31:58;3.90;99.90
39925;DHT22;25592;49.986;11.618;2023-02-13T01:34:44;4.00;99.90
39925;DHT22;25592;49.986;11.618;2023-02-13T01:37:29;4.00;99.90
39925;DHT22;25592;49.986;11.618;2023-02-13T01:40:14;4.00;99.90
39925;DHT22;25592;49.986;11.618;2023-02-13T01:43:01;3.90;99.90
39925;DHT22;25592;49.986;11.618;2023-02-13T01:45:50;4.00;99.90
39925;DHT22;25592;49.986;11.618;2023-02-13T01:48:37;4.00;99.90
39925;DHT22;25592;49.986;11.618;2023-02-13T01:51:27;3.90;99.90
39925;DHT22;25592;49.986;11.618;2023-02-13T01:54:20;3.90;99.90
39925;DHT22;25592;49.986;11.618;2023-02-13T01:57:15;3.90;99.90
39925;DHT22;25592;49.986;11.618;2023-02-13T02:00:09;3.90;99.90
39925;DHT22;25592;49.986;11.618;2023-02-13T02:03:18;3.90;99.90
39925;DHT22;25592;49.986;11.618;2023-02-13T02:06:08;3.90;99.90
39925;DHT22;25592;49.986;11.618;2023-02-13T02:08:58;3.90;99.90
39925;DHT22;25592;49.986;11.618;2023-02-13T02:12:00;4.00;99.90
39925;DHT22;25592;49.986;11.618;2023-02-13T02:14:48;4.00;99.90
39925;DHT22;25592;49.986;11.618;2023-02-13T02:17:34;4.00;99.90
39925;DHT22;25592;49.986;11.618;2023-02-13T02:20:29;3.90;99.90
39925;DHT22;25592;49.986;11.618;2023-02-13T02:24:03;3.90;99.90
39925;DHT22;25592;49.986;11.618;2023-02-13T02:27:04;3.90;99.90
39925;DHT22;25592;49.986;11.618;2023-02-13T02:36:22;3.90;99.90
39925;DHT22;25592;49.986;11.618;2023-02-13T02:39:37;3.90;99.90
39925;DHT22;25592;49.986;11.618;2023-02-13T02:43:07;3.90;99.90
39925;DHT22;25592;49.986;11.618;2023-02-13T02:49:07;3.90;99.90
39925;DHT22;25592;49.986;11.618;2023-02-13T02:52:17;3.80;99.90
39925;DHT22;25592;49.986;11.618;2023-02-13T02:55:31;3.80;99.90
39925;DHT22;25592;49.986;11.618;2023-02-13T03:01:43;3.70;99.90
39925;DHT22;25592;49.986;11.618;2023-02-13T03:04:51;3.80;99.90
39925;DHT22;25592;49.986;11.618;2023-02-13T03:07:56;3.80;99.90
39925;DHT22;25592;49.986;11.618;2023-02-13T03:10:41;3.80;99.90
39925;DHT22;25592;49.986;11.618;2023-02-13T03:13:47;3.80;99.90
39925;DHT22;25592;49.986;11.618;2023-02-13T03:16:33;3.70;99.90
39925;DHT22;25592;49.986;11.618;2023-02-13T03:26:45;3.70;99.90
39925;DHT22;25592;49.986;11.618;2023-02-13T03:29:51;3.70;99.90
39925;DHT22;25592;49.986;11.618;2023-02-13T03:42:19;3.70;99.90
39925;DHT22;25592;49.986;11.618;2023-02-13T03:45:16;3.60;99.90
39925;DHT22;25592;49.986;11.618;2023-02-13T03:48:33;3.70;99.90
39925;DHT22;25592;49.986;11.618;2023-02-13T03:51:43;3.60;99.90
39925;DHT22;25592;49.986;11.618;2023-02-13T03:54:38;3.70;99.90
39925;DHT22;25592;49.986;11.618;2023-02-13T03:57:47;3.60;99.90
39925;DHT22;25592;49.986;11.618;2023-02-13T04:00:54;3.50;99.90
39925;DHT22;25592;49.986;11.618;2023-02-13T04:03:55;3.50;99.90
39925;DHT22;25592;49.986;11.618;2023-02-13T04:06:49;3.60;99.90
39925;DHT22;25592;49.986;11.618;2023-02-13T04:09:40;3.60;99.90
39925;DHT22;25592;49.986;11.618;2023-02-13T04:15:37;3.60;99.90
39925;DHT22;25592;49.986;11.618;2023-02-13T04:18:30;3.60;99.90
39925;DHT22;25592;49.986;11.618;2023-02-13T04:21:17;3.60;99.90
39925;DHT22;25592;49.986;11.618;2023-02-13T04:24:02;3.60;99.90
39925;DHT22;25592;49.986;11.618;2023-02-13T04:26:47;3.60;99.90
39925;DHT22;25592;49.986;11.618;2023-02-13T04:29:33;3.50;99.90
39925;DHT22;25592;49.986;11.618;2023-02-13T04:32:18;3.50;99.90
39925;DHT22;25592;49.986;11.618;2023-02-13T04:35:04;3.50;99.90
39925;DHT22;25592;49.986;11.618;2023-02-13T04:37:49;3.50;99.90
39925;DHT22;25592;49.986;11.618;2023-02-13T04:40:35;3.50;99.90
39925;DHT22;25592;49.986;11.618;2023-02-13T04:43:20;3.50;99.90
39925;DHT22;25592;49.986;11.618;2023-02-13T04:46:06;3.40;99.90
39925;DHT22;25592;49.986;11.618;2023-02-13T04:48:51;3.40;99.90
39925;DHT22;25592;49.986;11.618;2023-02-13T04:51:36;3.30;99.90
39925;DHT22;25592;49.986;11.618;2023-02-13T04:54:22;3.40;99.90
39925;DHT22;25592;49.986;11.618;2023-02-13T04:57:07;3.40;99.90
39925;DHT22;25592;49.986;11.618;2023-02-13T04:59:52;3.40;99.90
39925;DHT22;25592;49.986;11.618;2023-02-13T05:02:38;3.30;99.90
39925;DHT22;25592;49.986;11.618;2023-02-13T05:05:24;3.20;99.90
39925;DHT22;25592;49.986;11.618;2023-02-13T05:08:09;3.30;99.90
39925;DHT22;25592;49.986;11.618;2023-02-13T05:10:54;3.30;99.90
39925;DHT22;25592;49.986;11.618;2023-02-13T05:13:40;3.30;99.90
39925;DHT22;25592;49.986;11.618;2023-02-13T05:16:25;3.30;99.90
39925;DHT22;25592;49.986;11.618;2023-02-13T05:19:11;3.30;99.90
39925;DHT22;25592;49.986;11.618;2023-02-13T05:21:57;3.30;99.90
39925;DHT22;25592;49.986;11.618;2023-02-13T05:25:01;3.30;99.90
39925;DHT22;25592;49.986;11.618;2023-02-13T05:27:47;3.30;99.90
39925;DHT22;25592;49.986;11.618;2023-02-13T05:30:32;3.30;99.90
39925;DHT22;25592;49.986;11.618;2023-02-13T05:33:18;3.30;99.90
39925;DHT22;25592;49.986;11.618;2023-02-13T05:36:03;3.30;99.90
39925;DHT22;25592;49.986;11.618;2023-02-13T05:38:49;3.30;99.90
39925;DHT22;25592;49.986;11.618;2023-02-13T05:41:34;3.30;99.90
39925;DHT22;25592;49.986;11.618;2023-02-13T05:44:19;3.30;99.90
39925;DHT22;25592;49.986;11.618;2023-02-13T05:47:05;3.30;99.90
39925;DHT22;25592;49.986;11.618;2023-02-13T05:49:50;3.30;99.90
39925;DHT22;25592;49.986;11.618;2023-02-13T05:52:36;3.20;99.90
39925;DHT22;25592;49.986;11.618;2023-02-13T05:55:21;3.20;99.90
39925;DHT22;25592;49.986;11.618;2023-02-13T05:58:06;3.20;99.90
39925;DHT22;25592;49.986;11.618;2023-02-13T06:00:55;3.20;99.90
39925;DHT22;25592;49.986;11.618;2023-02-13T06:03:42;3.10;99.90
39925;DHT22;25592;49.986;11.618;2023-02-13T06:06:28;3.10;99.90
39925;DHT22;25592;49.986;11.618;2023-02-13T06:09:13;3.20;99.90
39925;DHT22;25592;49.986;11.618;2023-02-13T06:11:58;3.20;99.90
39925;DHT22;25592;49.986;11.618;2023-02-13T06:14:44;3.20;99.90
39925;DHT22;25592;49.986;11.618;2023-02-13T06:17:29;3.20;99.90
39925;DHT22;25592;49.986;11.618;2023-02-13T06:20:14;3.20;99.90
39925;DHT22;25592;49.986;11.618;2023-02-13T06:23:00;3.20;99.90
39925;DHT22;25592;49.986;11.618;2023-02-13T06:25:45;3.20;99.90
39925;DHT22;25592;49.986;11.618;2023-02-13T06:28:30;3.20;99.90
39925;DHT22;25592;49.986;11.618;2023-02-13T06:31:16;3.20;99.90
39925;DHT22;25592;49.986;11.618;2023-02-13T06:34:02;3.10;99.90
39925;DHT22;25592;49.986;11.618;2023-02-13T06:36:47;3.10;99.90
39925;DHT22;25592;49.986;11.618;2023-02-13T06:39:32;3.20;99.90
39925;DHT22;25592;49.986;11.618;2023-02-13T06:42:18;3.20;99.90
39925;DHT22;25592;49.986;11.618;2023-02-13T06:45:03;3.20;99.90
39925;DHT22;25592;49.986;11.618;2023-02-13T06:47:49;3.20;99.90
39925;DHT22;25592;49.986;11.618;2023-02-13T06:50:36;3.20;99.90
39925;DHT22;25592;49.986;11.618;2023-02-13T06:53:21;3.30;99.90
39925;DHT22;25592;49.986;11.618;2023-02-13T06:56:09;3.20;99.90
39925;DHT22;25592;49.986;11.618;2023-02-13T06:58:55;3.20;99.90
39925;DHT22;25592;49.986;11.618;2023-02-13T07:01:40;3.20;99.90
39925;DHT22;25592;49.986;11.618;2023-02-13T07:04:26;3.20;99.90
39925;DHT22;25592;49.986;11.618;2023-02-13T07:07:11;3.20;99.90
39925;DHT22;25592;49.986;11.618;2023-02-13T07:09:57;3.20;99.90
39925;DHT22;25592;49.986;11.618;2023-02-13T07:12:42;3.20;99.90
39925;DHT22;25592;49.986;11.618;2023-02-13T07:15:34;3.20;99.90
39925;DHT22;25592;49.986;11.618;2023-02-13T07:18:19;3.20;99.90
39925;DHT22;25592;49.986;11.618;2023-02-13T07:21:05;3.20;99.90
39925;DHT22;25592;49.986;11.618;2023-02-13T07:23:51;3.20;99.90
39925;DHT22;25592;49.986;11.618;2023-02-13T07:26:36;3.20;99.90
39925;DHT22;25592;49.986;11.618;2023-02-13T07:29:22;3.20;99.90
39925;DHT22;25592;49.986;11.618;2023-02-13T07:32:07;3.20;99.90
39925;DHT22;25592;49.986;11.618;2023-02-13T07:34:53;3.20;99.90
39925;DHT22;25592;49.986;11.618;2023-02-13T07:37:46;3.10;99.90
39925;DHT22;25592;49.986;11.618;2023-02-13T07:40:31;3.10;99.90
39925;DHT22;25592;49.986;11.618;2023-02-13T07:43:17;3.10;99.90
39925;DHT22;25592;49.986;11.618;2023-02-13T07:46:02;3.10;99.90
39925;DHT22;25592;49.986;11.618;2023-02-13T07:48:47;3.10;99.90
39925;DHT22;25592;49.986;11.618;2023-02-13T07:51:35;3.10;99.90
39925;DHT22;25592;49.986;11.618;2023-02-13T07:54:20;3.10;99.90
39925;DHT22;25592;49.986;11.618;2023-02-13T07:57:06;3.00;99.90
39925;DHT22;25592;49.986;11.618;2023-02-13T07:59:51;3.00;99.90
39925;DHT22;25592;49.986;11.618;2023-02-13T08:02:36;3.00;99.90
39925;DHT22;25592;49.986;11.618;2023-02-13T08:05:21;3.00;99.90
39925;DHT22;25592;49.986;11.618;2023-02-13T08:08:07;2.80;99.90
39925;DHT22;25592;49.986;11.618;2023-02-13T08:10:53;2.90;99.90
39925;DHT22;25592;49.986;11.618;2023-02-13T08:13:57;2.90;99.90
39925;DHT22;25592;49.986;11.618;2023-02-13T08:16:42;3.00;99.90
39925;DHT22;25592;49.986;11.618;2023-02-13T08:19:28;3.00;99.90
39925;DHT22;25592;49.986;11.618;2023-02-13T08:22:13;3.10;99.90
39925;DHT22;25592;49.986;11.618;2023-02-13T08:24:58;3.10;99.90
39925;DHT22;25592;49.986;11.618;2023-02-13T08:27:44;3.10;99.90
39925;DHT22;25592;49.986;11.618;2023-02-13T08:30:30;3.10;99.90
39925;DHT22;25592;49.986;11.618;2023-02-13T08:33:15;3.10;99.90
39925;DHT22;25592;49.986;11.618;2023-02-13T08:36:05;3.10;99.90
39925;DHT22;25592;49.986;11.618;2023-02-13T08:38:50;3.20;99.90
39925;DHT22;25592;49.986;11.618;2023-02-13T08:41:36;3.20;99.90
39925;DHT22;25592;49.986;11.618;2023-02-13T08:44:21;3.20;99.90
39925;DHT22;25592;49.986;11.618;2023-02-13T08:47:07;3.30;99.90
39925;DHT22;25592;49.986;11.618;2023-02-13T08:49:53;3.30;99.90
39925;DHT22;25592;49.986;11.618;2023-02-13T08:52:38;3.20;99.90
39925;DHT22;25592;49.986;11.618;2023-02-13T08:55:23;3.30;99.90
39925;DHT22;25592;49.986;11.618;2023-02-13T08:58:09;3.40;99.90
39925;DHT22;25592;49.986;11.618;2023-02-13T09:00:54;3.50;99.90
39925;DHT22;25592;49.986;11.618;2023-02-13T09:03:39;3.50;99.90
39925;DHT22;25592;49.986;11.618;2023-02-13T09:06:25;3.50;99.90
39925;DHT22;25592;49.986;11.618;2023-02-13T09:09:11;3.50;99.90
39925;DHT22;25592;49.986;11.618;2023-02-13T09:11:57;3.50;99.90
39925;DHT22;25592;49.986;11.618;2023-02-13T09:14:42;3.50;99.90
39925;DHT22;25592;49.986;11.618;2023-02-13T09:17:27;3.50;99.90
39925;DHT22;25592;49.986;11.618;2023-02-13T09:20:13;3.50;99.90
39925;DHT22;25592;49.986;11.618;2023-02-13T09:22:58;3.60;99.90
39925;DHT22;25592;49.986;11.618;2023-02-13T09:25:44;3.60;99.90
39925;DHT22;25592;49.986;11.618;2023-02-13T09:28:31;3.70;99.90
39925;DHT22;25592;49.986;11.618;2023-02-13T09:31:19;3.60;99.90
39925;DHT22;25592;49.986;11.618;2023-02-13T09:34:05;3.60;99.90
39925;DHT22;25592;49.986;11.618;2023-02-13T09:36:51;3.60;99.90
39925;DHT22;25592;49.986;11.618;2023-02-13T09:39:37;3.70;99.90
39925;DHT22;25592;49.986;11.618;2023-02-13T09:42:29;3.70;99.90
39925;DHT22;25592;49.986;11.618;2023-02-13T09:45:15;3.90;99.90
39925;DHT22;25592;49.986;11.618;2023-02-13T09:48:04;3.90;99.90
39925;DHT22;25592;49.986;11.618;2023-02-13T09:50:50;4.00;99.90
39925;DHT22;25592;49.986;11.618;2023-02-13T09:53:35;5.10;99.90
39925;DHT22;25592;49.986;11.618;2023-02-13T09:59:41;5.10;99.90
39925;DHT22;25592;49.986;11.618;2023-02-13T10:05:52;4.70;99.90
39925;DHT22;25592;49.986;11.618;2023-02-13T10:12:24;4.60;99.90
39925;DHT22;25592;49.986;11.618;2023-02-13T10:15:41;4.50;99.90
39925;DHT22;25592;49.986;11.618;2023-02-13T10:18:37;4.60;99.90
39925;DHT22;25592;49.986;11.618;2023-02-13T10:21:29;4.60;99.90
39925;DHT22;25592;49.986;11.618;2023-02-13T10:24:36;4.60;99.90
39925;DHT22;25592;49.986;11.618;2023-02-13T10:27:26;4.70;99.90
39925;DHT22;25592;49.986;11.618;2023-02-13T10:30:25;4.90;99.90
39925;DHT22;25592;49.986;11.618;2023-02-13T10:33:27;4.90;99.90
39925;DHT22;25592;49.986;11.618;2023-02-13T10:36:26;5.00;99.90
39925;DHT22;25592;49.986;11.618;2023-02-13T10:42:19;5.10;99.90
39925;DHT22;25592;49.986;11.618;2023-02-13T10:48:51;5.00;99.90
39925;DHT22;25592;49.986;11.618;2023-02-13T10:54:51;5.30;99.90
39925;DHT22;25592;49.986;11.618;2023-02-13T11:01:08;5.30;99.90
39925;DHT22;25592;49.986;11.618;2023-02-13T11:07:03;5.30;99.90
39925;DHT22;25592;49.986;11.618;2023-02-13T11:09:50;5.20;99.90
39925;DHT22;25592;49.986;11.618;2023-02-13T11:12:37;5.60;99.90
39925;DHT22;25592;49.986;11.618;2023-02-13T11:15:30;5.60;99.90
39925;DHT22;25592;49.986;11.618;2023-02-13T11:18:21;5.60;99.90
39925;DHT22;25592;49.986;11.618;2023-02-13T11:21:19;5.60;99.90
39925;DHT22;25592;49.986;11.618;2023-02-13T11:24:07;5.70;99.90
39925;DHT22;25592;49.986;11.618;2023-02-13T11:27:07;5.80;99.90
39925;DHT22;25592;49.986;11.618;2023-02-13T11:29:59;5.90;99.90
39925;DHT22;25592;49.986;11.618;2023-02-13T11:32:50;5.90;99.90
39925;DHT22;25592;49.986;11.618;2023-02-13T11:35:40;5.80;99.90
39925;DHT22;25592;49.986;11.618;2023-02-13T11:38:25;5.90;99.90
39925;DHT22;25592;49.986;11.618;2023-02-13T11:41:13;5.80;99.90
39925;DHT22;25592;49.986;11.618;2023-02-13T11:44:00;5.80;99.90
39925;DHT22;25592;49.986;11.618;2023-02-13T11:46:50;5.90;99.90
39925;DHT22;25592;49.986;11.618;2023-02-13T11:49:38;6.00;99.90
39925;DHT22;25592;49.986;11.618;2023-02-13T11:52:33;6.10;99.90
39925;DHT22;25592;49.986;11.618;2023-02-13T12:04:15;6.30;99.90
39925;DHT22;25592;49.986;11.618;2023-02-13T12:07:10;6.40;99.90
39925;DHT22;25592;49.986;11.618;2023-02-13T12:10:02;6.60;99.90
39925;DHT22;25592;49.986;11.618;2023-02-13T12:13:08;6.90;99.90
39925;DHT22;25592;49.986;11.618;2023-02-13T12:16:31;7.20;99.90
39925;DHT22;25592;49.986;11.618;2023-02-13T12:19:27;7.40;99.90
39925;DHT22;25592;49.986;11.618;2023-02-13T12:28:33;8.10;99.90
39925;DHT22;25592;49.986;11.618;2023-02-13T12:31:29;8.30;99.90
39925;DHT22;25592;49.986;11.618;2023-02-13T12:43:46;9.00;99.90
39925;DHT22;25592;49.986;11.618;2023-02-13T12:49:55;9.60;99.90
39925;DHT22;25592;49.986;11.618;2023-02-13T12:52:52;9.70;99.90
39925;DHT22;25592;49.986;11.618;2023-02-13T12:59:18;9.80;99.90
39925;DHT22;25592;49.986;11.618;2023-02-13T13:05:42;9.30;99.90
39925;DHT22;25592;49.986;11.618;2023-02-13T13:09:06;9.40;99.90
39925;DHT22;25592;49.986;11.618;2023-02-13T13:15:24;9.70;99.90
39925;DHT22;25592;49.986;11.618;2023-02-13T13:18:26;9.90;99.90
39925;DHT22;25592;49.986;11.618;2023-02-13T13:21:16;10.20;99.90
39925;DHT22;25592;49.986;11.618;2023-02-13T13:24:31;10.40;99.90
39925;DHT22;25592;49.986;11.618;2023-02-13T13:27:23;10.70;99.90
39925;DHT22;25592;49.986;11.618;2023-02-13T13:30:34;10.70;99.90
39925;DHT22;25592;49.986;11.618;2023-02-13T13:33:24;10.70;99.90
39925;DHT22;25592;49.986;11.618;2023-02-13T13:45:24;12.00;99.90
39925;DHT22;25592;49.986;11.618;2023-02-13T13:48:45;12.20;99.90
39925;DHT22;25592;49.986;11.618;2023-02-13T13:51:34;12.40;99.90
39925;DHT22;25592;49.986;11.618;2023-02-13T13:54:34;12.50;99.90
39925;DHT22;25592;49.986;11.618;2023-02-13T13:57:23;12.80;99.90
39925;DHT22;25592;49.986;11.618;2023-02-13T14:05:59;13.00;99.90
39925;DHT22;25592;49.986;11.618;2023-02-13T14:17:14;13.60;99.90
39925;DHT22;25592;49.986;11.618;2023-02-13T14:20:00;13.60;99.90
39925;DHT22;25592;49.986;11.618;2023-02-13T14:22:46;13.70;99.90
39925;DHT22;25592;49.986;11.618;2023-02-13T14:25:31;13.80;99.90
39925;DHT22;25592;49.986;11.618;2023-02-13T14:28:23;13.90;99.90
39925;DHT22;25592;49.986;11.618;2023-02-13T14:31:20;13.90;99.90
39925;DHT22;25592;49.986;11.618;2023-02-13T14:37:14;14.00;99.90
39925;DHT22;25592;49.986;11.618;2023-02-13T14:45:57;14.10;99.90
39925;DHT22;25592;49.986;11.618;2023-02-13T14:49:06;13.90;99.90
39925;DHT22;25592;49.986;11.618;2023-02-13T14:52:02;13.90;99.90
39925;DHT22;25592;49.986;11.618;2023-02-13T14:58:25;14.00;99.90
39925;DHT22;25592;49.986;11.618;2023-02-13T15:01:34;14.00;99.90
39925;DHT22;25592;49.986;11.618;2023-02-13T15:04:42;14.10;99.90
39925;DHT22;25592;49.986;11.618;2023-02-13T15:07:31;14.10;99.90
39925;DHT22;25592;49.986;11.618;2023-02-13T15:13:35;14.10;99.90
39925;DHT22;25592;49.986;11.618;2023-02-13T15:16:25;14.00;99.90
39925;DHT22;25592;49.986;11.618;2023-02-13T15:19:15;13.90;99.80
39925;DHT22;25592;49.986;11.618;2023-02-13T15:22:03;13.90;99.90
39925;DHT22;25592;49.986;11.618;2023-02-13T15:24:49;13.90;99.90
39925;DHT22;25592;49.986;11.618;2023-02-13T15:27:40;13.90;99.90
39925;DHT22;25592;49.986;11.618;2023-02-13T15:30:29;13.90;99.90
39925;DHT22;25592;49.986;11.618;2023-02-13T15:33:18;13.80;99.90
39925;DHT22;25592;49.986;11.618;2023-02-13T15:36:05;13.70;99.90
39925;DHT22;25592;49.986;11.618;2023-02-13T15:39:04;13.60;99.90
39925;DHT22;25592;49.986;11.618;2023-02-13T15:41:59;13.60;99.90
39925;DHT22;25592;49.986;11.618;2023-02-13T15:44:48;13.40;99.90
39925;DHT22;25592;49.986;11.618;2023-02-13T15:47:33;13.20;99.90
39925;DHT22;25592;49.986;11.618;2023-02-13T15:50:33;12.90;99.90
39925;DHT22;25592;49.986;11.618;2023-02-13T15:53:19;12.80;99.90
39925;DHT22;25592;49.986;11.618;2023-02-13T15:56:05;12.60;99.90
39925;DHT22;25592;49.986;11.618;2023-02-13T15:58:51;12.50;99.90
39925;DHT22;25592;49.986;11.618;2023-02-13T16:01:39;12.20;99.90
39925;DHT22;25592;49.986;11.618;2023-02-13T16:04:27;11.80;99.90
39925;DHT22;25592;49.986;11.618;2023-02-13T16:07:14;11.80;99.90
39925;DHT22;25592;49.986;11.618;2023-02-13T16:13:15;11.50;99.90
39925;DHT22;25592;49.986;11.618;2023-02-13T16:16:08;11.30;99.90
39925;DHT22;25592;49.986;11.618;2023-02-13T16:18:54;11.10;99.90
39925;DHT22;25592;49.986;11.618;2023-02-13T16:21:40;10.90;99.90
39925;DHT22;25592;49.986;11.618;2023-02-13T16:24:25;10.70;99.90
39925;DHT22;25592;49.986;11.618;2023-02-13T16:27:15;10.50;99.90
39925;DHT22;25592;49.986;11.618;2023-02-13T16:30:06;10.40;99.90
39925;DHT22;25592;49.986;11.618;2023-02-13T16:36:15;10.10;99.90
39925;DHT22;25592;49.986;11.618;2023-02-13T16:39:10;9.90;99.90
39925;DHT22;25592;49.986;11.618;2023-02-13T16:42:01;10.10;99.90
39925;DHT22;25592;49.986;11.618;2023-02-13T16:44:46;9.90;99.90
39925;DHT22;25592;49.986;11.618;2023-02-13T16:47:32;9.70;99.90
39925;DHT22;25592;49.986;11.618;2023-02-13T16:50:17;9.50;99.90
39925;DHT22;25592;49.986;11.618;2023-02-13T16:53:03;9.20;99.90
39925;DHT22;25592;49.986;11.618;2023-02-13T16:56:00;9.20;99.90
39925;DHT22;25592;49.986;11.618;2023-02-13T16:58:45;9.10;99.90
39925;DHT22;25592;49.986;11.618;2023-02-13T17:01:31;8.90;99.90
39925;DHT22;25592;49.986;11.618;2023-02-13T17:04:25;8.90;99.90
39925;DHT22;25592;49.986;11.618;2023-02-13T17:07:13;8.80;99.90
39925;DHT22;25592;49.986;11.618;2023-02-13T17:10:22;8.60;99.90
39925;DHT22;25592;49.986;11.618;2023-02-13T17:15:56;8.50;99.90
39925;DHT22;25592;49.986;11.618;2023-02-13T17:18:43;8.40;99.90
39925;DHT22;25592;49.986;11.618;2023-02-13T17:21:28;8.30;99.90
39925;DHT22;25592;49.986;11.618;2023-02-13T17:24:16;8.20;99.90
39925;DHT22;25592;49.986;11.618;2023-02-13T17:27:02;8.20;99.90
39925;DHT22;25592;49.986;11.618;2023-02-13T17:29:47;8.10;99.90
39925;DHT22;25592;49.986;11.618;2023-02-13T17:32:33;8.00;99.90
39925;DHT22;25592;49.986;11.618;2023-02-13T17:35:18;7.90;99.90
39925;DHT22;25592;49.986;11.618;2023-02-13T17:38:04;7.90;99.90
39925;DHT22;25592;49.986;11.618;2023-02-13T17:40:50;7.90;99.90
39925;DHT22;25592;49.986;11.618;2023-02-13T17:43:35;7.80;99.90
39925;DHT22;25592;49.986;11.618;2023-02-13T17:46:21;7.80;99.90
39925;DHT22;25592;49.986;11.618;2023-02-13T17:49:06;7.70;99.90
39925;DHT22;25592;49.986;11.618;2023-02-13T17:51:53;7.60;99.90
39925;DHT22;25592;49.986;11.618;2023-02-13T17:54:38;7.60;99.90
39925;DHT22;25592;49.986;11.618;2023-02-13T17:57:23;7.50;99.90
39925;DHT22;25592;49.986;11.618;2023-02-13T18:00:09;7.60;99.90
39925;DHT22;25592;49.986;11.618;2023-02-13T18:02:55;7.40;99.90
39925;DHT22;25592;49.986;11.618;2023-02-13T18:05:41;7.30;99.90
39925;DHT22;25592;49.986;11.618;2023-02-13T18:08:26;7.20;99.90
39925;DHT22;25592;49.986;11.618;2023-02-13T18:11:11;7.10;99.90
39925;DHT22;25592;49.986;11.618;2023-02-13T18:13:57;7.00;99.90
39925;DHT22;25592;49.986;11.618;2023-02-13T18:16:43;6.90;99.90
39925;DHT22;25592;49.986;11.618;2023-02-13T18:19:29;6.90;99.90
39925;DHT22;25592;49.986;11.618;2023-02-13T18:22:14;6.80;99.90
39925;DHT22;25592;49.986;11.618;2023-02-13T18:25:00;6.70;99.90
39925;DHT22;25592;49.986;11.618;2023-02-13T18:27:47;6.70;99.90
39925;DHT22;25592;49.986;11.618;2023-02-13T18:30:32;6.60;99.90
39925;DHT22;25592;49.986;11.618;2023-02-13T18:33:18;6.80;99.90
39925;DHT22;25592;49.986;11.618;2023-02-13T18:36:03;6.70;99.90
39925;DHT22;25592;49.986;11.618;2023-02-13T18:38:50;6.70;99.90
39925;DHT22;25592;49.986;11.618;2023-02-13T18:41:36;6.60;99.90
39925;DHT22;25592;49.986;11.618;2023-02-13T18:44:21;6.60;99.90
39925;DHT22;25592;49.986;11.618;2023-02-13T18:47:12;6.60;99.90
39925;DHT22;25592;49.986;11.618;2023-02-13T18:49:58;6.60;99.90
39925;DHT22;25592;49.986;11.618;2023-02-13T18:52:43;6.50;99.90
39925;DHT22;25592;49.986;11.618;2023-02-13T18:55:28;6.50;99.90
39925;DHT22;25592;49.986;11.618;2023-02-13T18:58:14;6.40;99.90
39925;DHT22;25592;49.986;11.618;2023-02-13T19:01:09;6.30;99.90
39925;DHT22;25592;49.986;11.618;2023-02-13T19:03:55;6.30;99.90
39925;DHT22;25592;49.986;11.618;2023-02-13T19:06:42;6.20;99.90
39925;DHT22;25592;49.986;11.618;2023-02-13T19:09:28;6.10;99.90
39925;DHT22;25592;49.986;11.618;2023-02-13T19:12:13;6.10;99.90
39925;DHT22;25592;49.986;11.618;2023-02-13T19:14:58;6.10;99.90
39925;DHT22;25592;49.986;11.618;2023-02-13T19:17:44;6.00;99.90
39925;DHT22;25592;49.986;11.618;2023-02-13T19:20:29;6.00;99.90
39925;DHT22;25592;49.986;11.618;2023-02-13T19:23:15;6.00;99.90
39925;DHT22;25592;49.986;11.618;2023-02-13T19:26:08;5.90;99.90
39925;DHT22;25592;49.986;11.618;2023-02-13T19:28:55;5.80;99.90
39925;DHT22;25592;49.986;11.618;2023-02-13T19:31:41;5.70;99.90
39925;DHT22;25592;49.986;11.618;2023-02-13T19:34:26;5.70;99.90
39925;DHT22;25592;49.986;11.618;2023-02-13T19:37:12;5.70;99.90
39925;DHT22;25592;49.986;11.618;2023-02-13T19:39:57;5.60;99.90
39925;DHT22;25592;49.986;11.618;2023-02-13T19:42:43;5.50;99.90
39925;DHT22;25592;49.986;11.618;2023-02-13T19:45:28;5.50;99.90
39925;DHT22;25592;49.986;11.618;2023-02-13T19:48:14;5.50;99.90
39925;DHT22;25592;49.986;11.618;2023-02-13T19:51:07;5.40;99.90
39925;DHT22;25592;49.986;11.618;2023-02-13T19:54:04;5.40;99.90
39925;DHT22;25592;49.986;11.618;2023-02-13T19:56:50;5.40;99.90
39925;DHT22;25592;49.986;11.618;2023-02-13T19:59:35;5.50;99.90
39925;DHT22;25592;49.986;11.618;2023-02-13T20:02:21;5.50;99.90
39925;DHT22;25592;49.986;11.618;2023-02-13T20:05:06;5.50;99.90
39925;DHT22;25592;49.986;11.618;2023-02-13T20:07:52;5.40;99.90
39925;DHT22;25592;49.986;11.618;2023-02-13T20:10:43;5.40;99.90
39925;DHT22;25592;49.986;11.618;2023-02-13T20:13:29;5.40;99.90